Philo, Ohio
Current Conditions -  °F | °C
As of 12:53 PM on Thursday 30 Oct 2014 (Local Time) from KZZV Reporting Station
Scattered Clouds Scattered Clouds  
Wind Chill: 48°   Ceiling: Unl
Heat Index: 48°   Visibility: 10mi
Dew Point: 33°   Wind: 3mph
Humidity: 56%   Direction: 240°WSW
Pressure: 30.12"   Gusts: NA
Location:  39.86°N, 81.91°W
Report Text: KZZV 301653Z AUTO 24003KT 10SM SCT032 09/01 A3012 RMK AO2 SLP205 T00890006
Loading
Personal Weather Stations






























Interactive Weather Map
Tropical Storm Tracking
New forecast layout! Learn more

10-Day Weather Forecast

Advertisements
Track Severe Weather on mobile